sensor_id;sensor_type;location;lat;lon;timestamp;P1;durP1;ratioP1;P2;durP2;ratioP2
2874;SDS011;1445;52.600;13.328;2023-07-29T00:00:19;8.38;;;1.52;;
2874;SDS011;1445;52.600;13.328;2023-07-29T00:02:45;1.27;;;1.10;;
2874;SDS011;1445;52.600;13.328;2023-07-29T00:05:10;1.55;;;1.38;;
2874;SDS011;1445;52.600;13.328;2023-07-29T00:07:36;1.70;;;1.40;;
2874;SDS011;1445;52.600;13.328;2023-07-29T00:10:02;2.00;;;1.55;;
2874;SDS011;1445;52.600;13.328;2023-07-29T00:12:28;1.27;;;1.17;;
2874;SDS011;1445;52.600;13.328;2023-07-29T00:14:54;1.48;;;1.10;;
2874;SDS011;1445;52.600;13.328;2023-07-29T00:17:19;1.15;;;1.02;;
2874;SDS011;1445;52.600;13.328;2023-07-29T00:19:45;3.58;;;1.45;;
2874;SDS011;1445;52.600;13.328;2023-07-29T00:22:11;1.30;;;1.20;;
2874;SDS011;1445;52.600;13.328;2023-07-29T00:24:37;3.28;;;1.48;;
2874;SDS011;1445;52.600;13.328;2023-07-29T00:27:02;1.67;;;1.58;;
2874;SDS011;1445;52.600;13.328;2023-07-29T00:29:28;0.95;;;0.82;;
2874;SDS011;1445;52.600;13.328;2023-07-29T00:31:53;2.95;;;0.85;;
2874;SDS011;1445;52.600;13.328;2023-07-29T00:34:18;1.25;;;1.15;;
2874;SDS011;1445;52.600;13.328;2023-07-29T00:36:45;1.25;;;1.15;;
2874;SDS011;1445;52.600;13.328;2023-07-29T00:39:10;1.45;;;1.35;;
2874;SDS011;1445;52.600;13.328;2023-07-29T00:41:36;2.20;;;2.00;;
2874;SDS011;1445;52.600;13.328;2023-07-29T00:44:02;1.65;;;1.40;;
2874;SDS011;1445;52.600;13.328;2023-07-29T00:46:27;1.85;;;1.30;;
2874;SDS011;1445;52.600;13.328;2023-07-29T00:48:54;0.93;;;0.93;;
2874;SDS011;1445;52.600;13.328;2023-07-29T00:51:20;1.63;;;1.13;;
2874;SDS011;1445;52.600;13.328;2023-07-29T00:53:45;2.53;;;1.60;;
2874;SDS011;1445;52.600;13.328;2023-07-29T00:56:11;1.80;;;1.67;;
2874;SDS011;1445;52.600;13.328;2023-07-29T00:58:37;6.57;;;1.63;;
2874;SDS011;1445;52.600;13.328;2023-07-29T01:01:02;1.70;;;1.42;;
2874;SDS011;1445;52.600;13.328;2023-07-29T01:03:28;4.28;;;1.55;;
2874;SDS011;1445;52.600;13.328;2023-07-29T01:14:15;3.00;;;1.90;;
2874;SDS011;1445;52.600;13.328;2023-07-29T01:16:58;2.15;;;1.63;;
2874;SDS011;1445;52.600;13.328;2023-07-29T01:22:11;1.98;;;1.17;;
2874;SDS011;1445;52.600;13.328;2023-07-29T01:24:39;1.00;;;0.77;;
2874;SDS011;1445;52.600;13.328;2023-07-29T01:27:04;1.27;;;1.17;;
2874;SDS011;1445;52.600;13.328;2023-07-29T01:29:30;1.50;;;1.27;;
2874;SDS011;1445;52.600;13.328;2023-07-29T01:31:56;2.60;;;1.60;;
2874;SDS011;1445;52.600;13.328;2023-07-29T01:34:29;2.10;;;1.35;;
2874;SDS011;1445;52.600;13.328;2023-07-29T01:36:59;1.45;;;1.10;;
2874;SDS011;1445;52.600;13.328;2023-07-29T01:39:27;2.45;;;1.98;;
2874;SDS011;1445;52.600;13.328;2023-07-29T01:41:57;2.47;;;1.42;;
2874;SDS011;1445;52.600;13.328;2023-07-29T01:44:23;2.25;;;1.77;;
2874;SDS011;1445;52.600;13.328;2023-07-29T01:46:50;4.90;;;2.35;;
2874;SDS011;1445;52.600;13.328;2023-07-29T01:49:15;3.00;;;1.98;;
2874;SDS011;1445;52.600;13.328;2023-07-29T01:51:41;0.88;;;0.88;;
2874;SDS011;1445;52.600;13.328;2023-07-29T01:54:06;1.38;;;1.10;;
2874;SDS011;1445;52.600;13.328;2023-07-29T01:56:31;2.88;;;1.63;;
2874;SDS011;1445;52.600;13.328;2023-07-29T01:58:57;4.70;;;1.73;;
2874;SDS011;1445;52.600;13.328;2023-07-29T02:01:22;2.30;;;1.80;;
2874;SDS011;1445;52.600;13.328;2023-07-29T02:03:48;1.63;;;1.35;;
2874;SDS011;1445;52.600;13.328;2023-07-29T02:06:19;1.50;;;1.40;;
2874;SDS011;1445;52.600;13.328;2023-07-29T02:08:45;1.23;;;1.13;;
2874;SDS011;1445;52.600;13.328;2023-07-29T02:11:10;4.00;;;1.92;;
2874;SDS011;1445;52.600;13.328;2023-07-29T02:13:35;1.27;;;1.17;;
2874;SDS011;1445;52.600;13.328;2023-07-29T02:16:01;1.58;;;1.48;;
2874;SDS011;1445;52.600;13.328;2023-07-29T02:18:26;2.95;;;1.75;;
2874;SDS011;1445;52.600;13.328;2023-07-29T02:20:52;1.50;;;1.35;;
2874;SDS011;1445;52.600;13.328;2023-07-29T02:23:17;1.48;;;1.38;;
2874;SDS011;1445;52.600;13.328;2023-07-29T02:25:42;2.05;;;1.83;;
2874;SDS011;1445;52.600;13.328;2023-07-29T02:28:08;4.10;;;1.98;;
2874;SDS011;1445;52.600;13.328;2023-07-29T02:30:33;1.95;;;1.80;;
2874;SDS011;1445;52.600;13.328;2023-07-29T02:32:59;2.88;;;1.58;;
2874;SDS011;1445;52.600;13.328;2023-07-29T02:35:26;1.85;;;1.55;;
2874;SDS011;1445;52.600;13.328;2023-07-29T02:37:52;1.40;;;1.17;;
2874;SDS011;1445;52.600;13.328;2023-07-29T02:40:17;1.35;;;1.23;;
2874;SDS011;1445;52.600;13.328;2023-07-29T02:42:42;1.42;;;1.33;;
2874;SDS011;1445;52.600;13.328;2023-07-29T02:45:08;3.75;;;1.25;;
2874;SDS011;1445;52.600;13.328;2023-07-29T02:47:36;1.63;;;1.52;;
2874;SDS011;1445;52.600;13.328;2023-07-29T02:50:02;1.65;;;1.45;;
2874;SDS011;1445;52.600;13.328;2023-07-29T02:52:27;1.45;;;1.15;;
2874;SDS011;1445;52.600;13.328;2023-07-29T02:54:53;3.20;;;1.40;;
2874;SDS011;1445;52.600;13.328;2023-07-29T02:57:18;1.95;;;1.42;;
2874;SDS011;1445;52.600;13.328;2023-07-29T02:59:43;3.05;;;2.13;;
2874;SDS011;1445;52.600;13.328;2023-07-29T03:02:09;1.83;;;1.33;;
2874;SDS011;1445;52.600;13.328;2023-07-29T03:04:34;2.30;;;1.88;;
2874;SDS011;1445;52.600;13.328;2023-07-29T03:06:59;1.25;;;1.15;;
2874;SDS011;1445;52.600;13.328;2023-07-29T03:09:26;2.72;;;1.95;;
2874;SDS011;1445;52.600;13.328;2023-07-29T03:11:51;1.73;;;1.63;;
2874;SDS011;1445;52.600;13.328;2023-07-29T03:14:17;2.20;;;1.58;;
2874;SDS011;1445;52.600;13.328;2023-07-29T03:16:43;1.55;;;1.42;;
2874;SDS011;1445;52.600;13.328;2023-07-29T03:19:08;2.00;;;1.88;;
2874;SDS011;1445;52.600;13.328;2023-07-29T03:21:34;2.17;;;1.85;;
2874;SDS011;1445;52.600;13.328;2023-07-29T03:23:59;2.22;;;1.63;;
2874;SDS011;1445;52.600;13.328;2023-07-29T03:26:25;1.55;;;1.45;;
2874;SDS011;1445;52.600;13.328;2023-07-29T03:28:50;3.83;;;1.38;;
2874;SDS011;1445;52.600;13.328;2023-07-29T03:31:16;3.78;;;2.03;;
2874;SDS011;1445;52.600;13.328;2023-07-29T03:33:41;1.85;;;1.15;;
2874;SDS011;1445;52.600;13.328;2023-07-29T03:36:07;1.33;;;1.05;;
2874;SDS011;1445;52.600;13.328;2023-07-29T03:38:33;2.30;;;2.05;;
2874;SDS011;1445;52.600;13.328;2023-07-29T03:41:00;1.63;;;1.52;;
2874;SDS011;1445;52.600;13.328;2023-07-29T03:43:27;4.57;;;1.88;;
2874;SDS011;1445;52.600;13.328;2023-07-29T03:45:53;2.58;;;1.48;;
2874;SDS011;1445;52.600;13.328;2023-07-29T03:48:18;2.20;;;1.50;;
2874;SDS011;1445;52.600;13.328;2023-07-29T03:50:44;1.98;;;1.80;;
2874;SDS011;1445;52.600;13.328;2023-07-29T03:53:09;2.63;;;1.63;;
2874;SDS011;1445;52.600;13.328;2023-07-29T03:55:35;2.85;;;2.25;;
2874;SDS011;1445;52.600;13.328;2023-07-29T03:58:00;1.65;;;1.20;;
2874;SDS011;1445;52.600;13.328;2023-07-29T04:00:26;2.50;;;1.58;;
2874;SDS011;1445;52.600;13.328;2023-07-29T04:02:52;1.73;;;1.63;;
2874;SDS011;1445;52.600;13.328;2023-07-29T04:05:17;3.08;;;1.88;;
2874;SDS011;1445;52.600;13.328;2023-07-29T04:07:43;1.95;;;1.70;;
2874;SDS011;1445;52.600;13.328;2023-07-29T04:10:09;1.33;;;1.23;;
2874;SDS011;1445;52.600;13.328;2023-07-29T04:12:34;2.90;;;1.95;;
2874;SDS011;1445;52.600;13.328;2023-07-29T04:15:00;3.50;;;2.05;;
2874;SDS011;1445;52.600;13.328;2023-07-29T04:17:25;3.17;;;2.17;;
2874;SDS011;1445;52.600;13.328;2023-07-29T04:19:50;5.50;;;2.42;;
2874;SDS011;1445;52.600;13.328;2023-07-29T04:22:16;1.70;;;1.60;;
2874;SDS011;1445;52.600;13.328;2023-07-29T04:24:42;2.53;;;1.73;;
2874;SDS011;1445;52.600;13.328;2023-07-29T04:27:07;1.80;;;1.63;;
2874;SDS011;1445;52.600;13.328;2023-07-29T04:29:33;1.95;;;1.83;;
2874;SDS011;1445;52.600;13.328;2023-07-29T04:32:00;2.42;;;1.80;;
2874;SDS011;1445;52.600;13.328;2023-07-29T04:34:26;1.63;;;1.48;;
2874;SDS011;1445;52.600;13.328;2023-07-29T04:36:52;3.08;;;2.35;;
2874;SDS011;1445;52.600;13.328;2023-07-29T04:39:17;2.40;;;1.77;;
2874;SDS011;1445;52.600;13.328;2023-07-29T04:41:43;3.22;;;2.00;;
2874;SDS011;1445;52.600;13.328;2023-07-29T04:44:08;2.00;;;1.50;;
2874;SDS011;1445;52.600;13.328;2023-07-29T04:46:34;1.50;;;1.25;;
2874;SDS011;1445;52.600;13.328;2023-07-29T04:49:00;1.20;;;1.08;;
2874;SDS011;1445;52.600;13.328;2023-07-29T04:51:25;1.35;;;1.25;;
2874;SDS011;1445;52.600;13.328;2023-07-29T04:53:51;1.23;;;1.17;;
2874;SDS011;1445;52.600;13.328;2023-07-29T04:56:16;1.80;;;1.65;;
2874;SDS011;1445;52.600;13.328;2023-07-29T04:58:41;2.05;;;1.85;;
2874;SDS011;1445;52.600;13.328;2023-07-29T05:01:13;3.90;;;2.33;;
2874;SDS011;1445;52.600;13.328;2023-07-29T05:03:38;2.88;;;1.77;;
2874;SDS011;1445;52.600;13.328;2023-07-29T05:06:04;1.75;;;1.63;;
2874;SDS011;1445;52.600;13.328;2023-07-29T05:08:30;1.80;;;1.70;;
2874;SDS011;1445;52.600;13.328;2023-07-29T05:10:55;2.15;;;1.73;;
2874;SDS011;1445;52.600;13.328;2023-07-29T05:13:21;2.40;;;1.70;;
2874;SDS011;1445;52.600;13.328;2023-07-29T05:15:47;1.52;;;1.13;;
2874;SDS011;1445;52.600;13.328;2023-07-29T05:18:13;3.35;;;2.20;;
2874;SDS011;1445;52.600;13.328;2023-07-29T05:20:39;3.58;;;1.95;;
2874;SDS011;1445;52.600;13.328;2023-07-29T05:23:04;2.10;;;1.38;;
2874;SDS011;1445;52.600;13.328;2023-07-29T05:25:30;3.78;;;2.45;;
2874;SDS011;1445;52.600;13.328;2023-07-29T05:27:55;2.15;;;1.92;;
2874;SDS011;1445;52.600;13.328;2023-07-29T05:30:20;2.80;;;1.75;;
2874;SDS011;1445;52.600;13.328;2023-07-29T05:32:46;3.50;;;2.05;;
2874;SDS011;1445;52.600;13.328;2023-07-29T05:35:11;3.78;;;1.80;;
2874;SDS011;1445;52.600;13.328;2023-07-29T05:37:40;2.70;;;2.05;;
2874;SDS011;1445;52.600;13.328;2023-07-29T05:40:06;3.50;;;2.15;;
2874;SDS011;1445;52.600;13.328;2023-07-29T05:42:32;5.18;;;1.65;;
2874;SDS011;1445;52.600;13.328;2023-07-29T05:44:58;1.67;;;1.40;;
2874;SDS011;1445;52.600;13.328;2023-07-29T05:47:24;2.08;;;1.85;;
2874;SDS011;1445;52.600;13.328;2023-07-29T05:49:49;1.60;;;1.23;;
2874;SDS011;1445;52.600;13.328;2023-07-29T05:52:14;2.75;;;2.08;;
2874;SDS011;1445;52.600;13.328;2023-07-29T05:54:40;1.17;;;1.10;;
2874;SDS011;1445;52.600;13.328;2023-07-29T05:57:07;1.52;;;1.42;;
2874;SDS011;1445;52.600;13.328;2023-07-29T05:59:34;3.28;;;1.80;;
2874;SDS011;1445;52.600;13.328;2023-07-29T06:01:59;1.95;;;1.50;;
2874;SDS011;1445;52.600;13.328;2023-07-29T06:04:25;2.00;;;1.25;;
2874;SDS011;1445;52.600;13.328;2023-07-29T06:06:50;0.90;;;0.90;;
2874;SDS011;1445;52.600;13.328;2023-07-29T06:09:16;2.03;;;1.45;;
2874;SDS011;1445;52.600;13.328;2023-07-29T06:11:41;2.25;;;1.63;;
2874;SDS011;1445;52.600;13.328;2023-07-29T06:14:07;5.18;;;2.22;;
2874;SDS011;1445;52.600;13.328;2023-07-29T06:16:32;1.45;;;1.27;;
2874;SDS011;1445;52.600;13.328;2023-07-29T06:18:57;3.10;;;1.33;;
2874;SDS011;1445;52.600;13.328;2023-07-29T06:21:23;1.58;;;1.40;;
2874;SDS011;1445;52.600;13.328;2023-07-29T06:23:48;3.90;;;1.55;;
2874;SDS011;1445;52.600;13.328;2023-07-29T06:26:13;1.05;;;0.98;;
2874;SDS011;1445;52.600;13.328;2023-07-29T06:28:39;1.73;;;1.13;;
2874;SDS011;1445;52.600;13.328;2023-07-29T06:31:04;2.15;;;1.92;;
2874;SDS011;1445;52.600;13.328;2023-07-29T06:33:30;2.35;;;1.60;;
2874;SDS011;1445;52.600;13.328;2023-07-29T06:35:55;2.40;;;1.70;;
2874;SDS011;1445;52.600;13.328;2023-07-29T06:38:20;2.35;;;1.63;;
2874;SDS011;1445;52.600;13.328;2023-07-29T06:40:50;1.25;;;1.15;;
2874;SDS011;1445;52.600;13.328;2023-07-29T06:43:16;2.05;;;1.85;;
2874;SDS011;1445;52.600;13.328;2023-07-29T06:45:41;1.23;;;1.10;;
2874;SDS011;1445;52.600;13.328;2023-07-29T06:48:07;2.65;;;1.73;;
2874;SDS011;1445;52.600;13.328;2023-07-29T06:50:33;2.28;;;1.85;;
2874;SDS011;1445;52.600;13.328;2023-07-29T06:52:58;2.50;;;1.40;;
2874;SDS011;1445;52.600;13.328;2023-07-29T06:55:23;1.95;;;1.65;;
2874;SDS011;1445;52.600;13.328;2023-07-29T06:57:49;2.60;;;1.80;;
2874;SDS011;1445;52.600;13.328;2023-07-29T07:00:14;2.97;;;1.20;;
2874;SDS011;1445;52.600;13.328;2023-07-29T07:02:40;1.52;;;1.42;;
2874;SDS011;1445;52.600;13.328;2023-07-29T07:05:05;0.90;;;0.90;;
2874;SDS011;1445;52.600;13.328;2023-07-29T07:07:30;1.80;;;1.58;;
2874;SDS011;1445;52.600;13.328;2023-07-29T07:09:56;1.60;;;1.25;;
2874;SDS011;1445;52.600;13.328;2023-07-29T07:12:21;2.08;;;1.58;;
2874;SDS011;1445;52.600;13.328;2023-07-29T07:14:47;1.80;;;1.63;;
2874;SDS011;1445;52.600;13.328;2023-07-29T07:17:13;1.42;;;1.17;;
2874;SDS011;1445;52.600;13.328;2023-07-29T07:19:38;2.00;;;1.83;;
2874;SDS011;1445;52.600;13.328;2023-07-29T07:22:03;1.50;;;1.40;;
2874;SDS011;1445;52.600;13.328;2023-07-29T07:24:29;1.40;;;1.30;;
2874;SDS011;1445;52.600;13.328;2023-07-29T07:26:54;6.30;;;1.30;;
2874;SDS011;1445;52.600;13.328;2023-07-29T07:29:20;1.73;;;1.45;;
2874;SDS011;1445;52.600;13.328;2023-07-29T07:31:49;2.30;;;1.63;;
2874;SDS011;1445;52.600;13.328;2023-07-29T07:34:16;1.80;;;1.70;;
2874;SDS011;1445;52.600;13.328;2023-07-29T07:36:41;1.77;;;1.42;;
2874;SDS011;1445;52.600;13.328;2023-07-29T07:39:07;1.38;;;0.95;;
2874;SDS011;1445;52.600;13.328;2023-07-29T07:41:32;3.55;;;1.83;;
2874;SDS011;1445;52.600;13.328;2023-07-29T07:43:58;1.92;;;1.33;;
2874;SDS011;1445;52.600;13.328;2023-07-29T07:46:23;1.35;;;1.17;;
2874;SDS011;1445;52.600;13.328;2023-07-29T07:48:48;1.20;;;1.00;;
2874;SDS011;1445;52.600;13.328;2023-07-29T07:51:14;2.50;;;1.50;;
2874;SDS011;1445;52.600;13.328;2023-07-29T07:53:39;1.42;;;1.33;;
2874;SDS011;1445;52.600;13.328;2023-07-29T07:56:05;1.48;;;1.10;;
2874;SDS011;1445;52.600;13.328;2023-07-29T07:58:31;1.33;;;1.02;;
2874;SDS011;1445;52.600;13.328;2023-07-29T08:01:01;1.88;;;1.42;;
2874;SDS011;1445;52.600;13.328;2023-07-29T08:03:30;0.80;;;0.80;;
2874;SDS011;1445;52.600;13.328;2023-07-29T08:05:55;1.48;;;1.17;;
2874;SDS011;1445;52.600;13.328;2023-07-29T08:08:21;2.97;;;1.63;;
2874;SDS011;1445;52.600;13.328;2023-07-29T08:10:46;1.10;;;1.00;;
2874;SDS011;1445;52.600;13.328;2023-07-29T08:13:12;2.22;;;1.98;;
2874;SDS011;1445;52.600;13.328;2023-07-29T08:15:37;2.25;;;1.30;;
2874;SDS011;1445;52.600;13.328;2023-07-29T08:18:02;1.33;;;1.05;;
2874;SDS011;1445;52.600;13.328;2023-07-29T08:20:28;1.52;;;1.30;;
2874;SDS011;1445;52.600;13.328;2023-07-29T08:22:53;2.35;;;1.45;;
2874;SDS011;1445;52.600;13.328;2023-07-29T08:25:19;0.70;;;0.68;;
2874;SDS011;1445;52.600;13.328;2023-07-29T08:27:44;1.52;;;1.13;;
2874;SDS011;1445;52.600;13.328;2023-07-29T08:30:10;0.95;;;0.85;;
2874;SDS011;1445;52.600;13.328;2023-07-29T08:32:35;1.58;;;1.40;;
2874;SDS011;1445;52.600;13.328;2023-07-29T08:35:01;0.93;;;0.88;;
2874;SDS011;1445;52.600;13.328;2023-07-29T08:37:26;0.88;;;0.80;;
2874;SDS011;1445;52.600;13.328;2023-07-29T08:39:52;1.52;;;1.10;;
2874;SDS011;1445;52.600;13.328;2023-07-29T08:42:19;1.55;;;1.05;;
2874;SDS011;1445;52.600;13.328;2023-07-29T08:44:44;1.67;;;1.30;;
2874;SDS011;1445;52.600;13.328;2023-07-29T08:47:13;1.05;;;0.93;;
2874;SDS011;1445;52.600;13.328;2023-07-29T08:49:39;1.45;;;1.10;;
2874;SDS011;1445;52.600;13.328;2023-07-29T08:52:05;3.00;;;1.35;;
2874;SDS011;1445;52.600;13.328;2023-07-29T08:54:32;1.13;;;0.93;;
2874;SDS011;1445;52.600;13.328;2023-07-29T08:56:57;1.20;;;1.08;;
2874;SDS011;1445;52.600;13.328;2023-07-29T08:59:24;0.75;;;0.75;;
2874;SDS011;1445;52.600;13.328;2023-07-29T09:01:51;1.10;;;0.88;;
2874;SDS011;1445;52.600;13.328;2023-07-29T09:04:20;2.38;;;1.25;;
2874;SDS011;1445;52.600;13.328;2023-07-29T09:06:46;1.42;;;1.00;;
2874;SDS011;1445;52.600;13.328;2023-07-29T09:09:14;2.13;;;1.08;;
2874;SDS011;1445;52.600;13.328;2023-07-29T09:11:40;1.85;;;1.65;;
2874;SDS011;1445;52.600;13.328;2023-07-29T09:14:05;5.05;;;1.67;;
2874;SDS011;1445;52.600;13.328;2023-07-29T09:16:31;2.13;;;0.80;;
2874;SDS011;1445;52.600;13.328;2023-07-29T09:18:58;1.13;;;1.00;;
2874;SDS011;1445;52.600;13.328;2023-07-29T09:21:26;1.20;;;1.10;;
2874;SDS011;1445;52.600;13.328;2023-07-29T09:23:53;1.40;;;0.70;;
2874;SDS011;1445;52.600;13.328;2023-07-29T09:26:23;0.85;;;0.68;;
2874;SDS011;1445;52.600;13.328;2023-07-29T09:28:51;1.52;;;1.10;;
2874;SDS011;1445;52.600;13.328;2023-07-29T09:31:19;1.15;;;0.90;;
2874;SDS011;1445;52.600;13.328;2023-07-29T09:33:45;0.75;;;0.75;;
2874;SDS011;1445;52.600;13.328;2023-07-29T09:36:11;0.52;;;0.50;;
2874;SDS011;1445;52.600;13.328;2023-07-29T09:38:36;1.17;;;0.68;;
2874;SDS011;1445;52.600;13.328;2023-07-29T09:41:02;1.10;;;0.80;;
2874;SDS011;1445;52.600;13.328;2023-07-29T09:43:32;1.40;;;1.08;;
2874;SDS011;1445;52.600;13.328;2023-07-29T09:46:02;0.88;;;0.88;;
2874;SDS011;1445;52.600;13.328;2023-07-29T09:48:32;1.40;;;0.80;;
2874;SDS011;1445;52.600;13.328;2023-07-29T09:50:58;0.70;;;0.70;;
2874;SDS011;1445;52.600;13.328;2023-07-29T09:53:24;1.05;;;0.65;;
2874;SDS011;1445;52.600;13.328;2023-07-29T09:55:49;1.00;;;0.73;;
2874;SDS011;1445;52.600;13.328;2023-07-29T09:58:18;1.40;;;1.20;;
2874;SDS011;1445;52.600;13.328;2023-07-29T10:00:45;0.63;;;0.63;;
2874;SDS011;1445;52.600;13.328;2023-07-29T10:03:11;1.92;;;0.93;;
2874;SDS011;1445;52.600;13.328;2023-07-29T10:05:38;1.30;;;0.80;;
2874;SDS011;1445;52.600;13.328;2023-07-29T10:08:05;0.70;;;0.70;;
2874;SDS011;1445;52.600;13.328;2023-07-29T10:10:31;0.68;;;0.68;;
2874;SDS011;1445;52.600;13.328;2023-07-29T10:12:56;1.08;;;0.85;;
2874;SDS011;1445;52.600;13.328;2023-07-29T10:15:22;0.95;;;0.70;;
2874;SDS011;1445;52.600;13.328;2023-07-29T10:17:48;1.20;;;1.10;;
2874;SDS011;1445;52.600;13.328;2023-07-29T10:20:15;1.00;;;0.80;;
2874;SDS011;1445;52.600;13.328;2023-07-29T10:22:42;1.17;;;1.08;;
2874;SDS011;1445;52.600;13.328;2023-07-29T10:25:18;0.52;;;0.43;;
2874;SDS011;1445;52.600;13.328;2023-07-29T10:30:14;0.60;;;0.60;;
2874;SDS011;1445;52.600;13.328;2023-07-29T10:32:43;0.80;;;0.63;;
2874;SDS011;1445;52.600;13.328;2023-07-29T10:35:11;0.45;;;0.45;;
2874;SDS011;1445;52.600;13.328;2023-07-29T10:37:37;0.82;;;0.65;;
2874;SDS011;1445;52.600;13.328;2023-07-29T10:40:05;9.90;;;1.45;;
2874;SDS011;1445;52.600;13.328;2023-07-29T10:42:32;1.25;;;0.60;;
2874;SDS011;1445;52.600;13.328;2023-07-29T10:44:57;0.50;;;0.50;;
2874;SDS011;1445;52.600;13.328;2023-07-29T10:47:23;1.35;;;1.08;;
2874;SDS011;1445;52.600;13.328;2023-07-29T10:49:51;1.30;;;0.88;;
2874;SDS011;1445;52.600;13.328;2023-07-29T10:55:00;10.85;;;2.70;;
2874;SDS011;1445;52.600;13.328;2023-07-29T10:57:34;1.33;;;1.23;;
2874;SDS011;1445;52.600;13.328;2023-07-29T11:00:05;1.27;;;0.88;;
2874;SDS011;1445;52.600;13.328;2023-07-29T11:02:35;0.70;;;0.68;;
2874;SDS011;1445;52.600;13.328;2023-07-29T11:05:05;0.73;;;0.43;;
2874;SDS011;1445;52.600;13.328;2023-07-29T11:07:32;10.05;;;0.90;;
2874;SDS011;1445;52.600;13.328;2023-07-29T11:10:12;0.43;;;0.43;;
2874;SDS011;1445;52.600;13.328;2023-07-29T11:12:43;0.40;;;0.40;;
2874;SDS011;1445;52.600;13.328;2023-07-29T11:17:36;0.52;;;0.52;;
2874;SDS011;1445;52.600;13.328;2023-07-29T11:20:04;0.57;;;0.57;;
2874;SDS011;1445;52.600;13.328;2023-07-29T11:22:35;0.65;;;0.60;;
2874;SDS011;1445;52.600;13.328;2023-07-29T11:25:02;1.27;;;0.45;;
2874;SDS011;1445;52.600;13.328;2023-07-29T11:27:27;0.68;;;0.68;;
2874;SDS011;1445;52.600;13.328;2023-07-29T11:29:56;2.08;;;1.27;;
2874;SDS011;1445;52.600;13.328;2023-07-29T11:32:23;3.13;;;1.23;;
2874;SDS011;1445;52.600;13.328;2023-07-29T11:34:50;1.38;;;1.08;;
2874;SDS011;1445;52.600;13.328;2023-07-29T11:37:15;0.65;;;0.65;;
2874;SDS011;1445;52.600;13.328;2023-07-29T11:39:41;0.63;;;0.63;;
2874;SDS011;1445;52.600;13.328;2023-07-29T11:42:06;0.60;;;0.60;;
2874;SDS011;1445;52.600;13.328;2023-07-29T11:44:36;1.65;;;1.10;;
2874;SDS011;1445;52.600;13.328;2023-07-29T11:47:01;1.10;;;0.90;;
2874;SDS011;1445;52.600;13.328;2023-07-29T11:49:27;1.88;;;1.02;;
2874;SDS011;1445;52.600;13.328;2023-07-29T11:51:52;1.00;;;0.75;;
2874;SDS011;1445;52.600;13.328;2023-07-29T11:54:18;1.30;;;1.00;;
2874;SDS011;1445;52.600;13.328;2023-07-29T11:56:46;1.00;;;0.40;;
2874;SDS011;1445;52.600;13.328;2023-07-29T11:59:12;0.95;;;0.95;;
2874;SDS011;1445;52.600;13.328;2023-07-29T12:01:39;0.73;;;0.73;;
2874;SDS011;1445;52.600;13.328;2023-07-29T12:04:05;1.10;;;0.60;;
2874;SDS011;1445;52.600;13.328;2023-07-29T12:06:30;0.52;;;0.50;;
2874;SDS011;1445;52.600;13.328;2023-07-29T12:08:56;0.75;;;0.70;;
2874;SDS011;1445;52.600;13.328;2023-07-29T12:11:22;0.88;;;0.70;;
2874;SDS011;1445;52.600;13.328;2023-07-29T12:13:48;0.82;;;0.75;;
2874;SDS011;1445;52.600;13.328;2023-07-29T12:16:16;0.88;;;0.88;;
2874;SDS011;1445;52.600;13.328;2023-07-29T12:18:45;7.30;;;1.20;;
2874;SDS011;1445;52.600;13.328;2023-07-29T12:21:10;0.50;;;0.50;;
2874;SDS011;1445;52.600;13.328;2023-07-29T12:23:35;1.45;;;1.00;;
2874;SDS011;1445;52.600;13.328;2023-07-29T12:26:01;2.47;;;1.02;;
2874;SDS011;1445;52.600;13.328;2023-07-29T12:28:27;1.08;;;0.98;;
2874;SDS011;1445;52.600;13.328;2023-07-29T12:30:53;2.58;;;0.75;;
2874;SDS011;1445;52.600;13.328;2023-07-29T12:33:34;1.42;;;0.95;;
2874;SDS011;1445;52.600;13.328;2023-07-29T12:36:01;1.00;;;0.93;;
2874;SDS011;1445;52.600;13.328;2023-07-29T12:38:28;2.22;;;1.30;;
2874;SDS011;1445;52.600;13.328;2023-07-29T12:40:54;3.58;;;1.33;;
2874;SDS011;1445;52.600;13.328;2023-07-29T12:43:20;1.45;;;1.08;;
2874;SDS011;1445;52.600;13.328;2023-07-29T12:45:46;2.03;;;0.80;;
2874;SDS011;1445;52.600;13.328;2023-07-29T12:48:13;6.13;;;1.13;;
2874;SDS011;1445;52.600;13.328;2023-07-29T12:50:40;1.73;;;0.93;;
2874;SDS011;1445;52.600;13.328;2023-07-29T12:53:06;1.20;;;1.02;;
2874;SDS011;1445;52.600;13.328;2023-07-29T12:55:32;1.92;;;1.20;;
2874;SDS011;1445;52.600;13.328;2023-07-29T12:57:58;1.08;;;1.05;;
2874;SDS011;1445;52.600;13.328;2023-07-29T13:00:24;1.05;;;1.00;;
2874;SDS011;1445;52.600;13.328;2023-07-29T13:02:50;0.60;;;0.55;;
2874;SDS011;1445;52.600;13.328;2023-07-29T13:05:15;1.77;;;1.23;;
2874;SDS011;1445;52.600;13.328;2023-07-29T13:07:41;1.08;;;1.05;;
2874;SDS011;1445;52.600;13.328;2023-07-29T13:10:08;0.68;;;0.55;;
2874;SDS011;1445;52.600;13.328;2023-07-29T13:12:37;2.03;;;1.08;;
2874;SDS011;1445;52.600;13.328;2023-07-29T13:15:03;0.88;;;0.70;;
2874;SDS011;1445;52.600;13.328;2023-07-29T13:17:28;0.90;;;0.80;;
2874;SDS011;1445;52.600;13.328;2023-07-29T13:19:54;0.65;;;0.65;;
2874;SDS011;1445;52.600;13.328;2023-07-29T13:22:19;2.53;;;1.00;;
2874;SDS011;1445;52.600;13.328;2023-07-29T13:24:45;1.05;;;0.95;;
2874;SDS011;1445;52.600;13.328;2023-07-29T13:27:11;0.95;;;0.90;;
2874;SDS011;1445;52.600;13.328;2023-07-29T13:29:36;1.42;;;1.10;;
2874;SDS011;1445;52.600;13.328;2023-07-29T13:32:02;0.45;;;0.45;;
2874;SDS011;1445;52.600;13.328;2023-07-29T13:34:27;1.13;;;0.90;;
2874;SDS011;1445;52.600;13.328;2023-07-29T13:36:53;0.63;;;0.63;;
2874;SDS011;1445;52.600;13.328;2023-07-29T13:39:18;0.88;;;0.50;;
2874;SDS011;1445;52.600;13.328;2023-07-29T13:41:44;0.43;;;0.43;;
2874;SDS011;1445;52.600;13.328;2023-07-29T13:44:09;0.50;;;0.50;;
2874;SDS011;1445;52.600;13.328;2023-07-29T13:46:34;0.73;;;0.50;;
2874;SDS011;1445;52.600;13.328;2023-07-29T13:49:00;0.77;;;0.75;;
2874;SDS011;1445;52.600;13.328;2023-07-29T13:51:26;0.30;;;0.30;;
2874;SDS011;1445;52.600;13.328;2023-07-29T13:53:51;0.57;;;0.57;;
2874;SDS011;1445;52.600;13.328;2023-07-29T13:56:17;0.47;;;0.47;;
2874;SDS011;1445;52.600;13.328;2023-07-29T13:58:42;0.70;;;0.70;;
2874;SDS011;1445;52.600;13.328;2023-07-29T14:01:07;0.40;;;0.40;;
2874;SDS011;1445;52.600;13.328;2023-07-29T14:03:33;0.85;;;0.55;;
2874;SDS011;1445;52.600;13.328;2023-07-29T14:05:58;0.75;;;0.57;;
2874;SDS011;1445;52.600;13.328;2023-07-29T14:08:24;0.70;;;0.40;;
2874;SDS011;1445;52.600;13.328;2023-07-29T14:10:49;0.28;;;0.28;;
2874;SDS011;1445;52.600;13.328;2023-07-29T14:13:15;0.32;;;0.32;;
2874;SDS011;1445;52.600;13.328;2023-07-29T14:15:40;0.30;;;0.30;;
2874;SDS011;1445;52.600;13.328;2023-07-29T14:18:06;0.50;;;0.50;;
2874;SDS011;1445;52.600;13.328;2023-07-29T14:20:32;0.40;;;0.40;;
2874;SDS011;1445;52.600;13.328;2023-07-29T14:22:57;0.30;;;0.30;;
2874;SDS011;1445;52.600;13.328;2023-07-29T14:25:23;1.50;;;0.45;;
2874;SDS011;1445;52.600;13.328;2023-07-29T14:27:48;0.40;;;0.38;;
2874;SDS011;1445;52.600;13.328;2023-07-29T14:30:14;0.30;;;0.30;;
2874;SDS011;1445;52.600;13.328;2023-07-29T14:32:39;0.50;;;0.50;;
2874;SDS011;1445;52.600;13.328;2023-07-29T14:35:05;0.50;;;0.50;;
2874;SDS011;1445;52.600;13.328;2023-07-29T14:37:31;0.38;;;0.38;;
2874;SDS011;1445;52.600;13.328;2023-07-29T14:40:00;0.52;;;0.52;;
2874;SDS011;1445;52.600;13.328;2023-07-29T14:42:26;0.40;;;0.40;;
2874;SDS011;1445;52.600;13.328;2023-07-29T14:44:52;0.30;;;0.30;;
2874;SDS011;1445;52.600;13.328;2023-07-29T14:47:18;0.47;;;0.47;;
2874;SDS011;1445;52.600;13.328;2023-07-29T14:49:44;0.47;;;0.45;;
2874;SDS011;1445;52.600;13.328;2023-07-29T14:52:09;0.50;;;0.50;;
2874;SDS011;1445;52.600;13.328;2023-07-29T14:54:35;0.43;;;0.43;;
2874;SDS011;1445;52.600;13.328;2023-07-29T14:57:01;0.30;;;0.30;;
2874;SDS011;1445;52.600;13.328;2023-07-29T14:59:26;0.38;;;0.38;;
2874;SDS011;1445;52.600;13.328;2023-07-29T15:01:52;0.50;;;0.50;;
2874;SDS011;1445;52.600;13.328;2023-07-29T15:04:17;0.50;;;0.50;;
2874;SDS011;1445;52.600;13.328;2023-07-29T15:06:43;0.30;;;0.30;;
2874;SDS011;1445;52.600;13.328;2023-07-29T15:09:08;0.55;;;0.55;;
2874;SDS011;1445;52.600;13.328;2023-07-29T15:11:34;0.80;;;0.57;;